DLH494 EDDM-CYYZ
Flight info
| Callsign | DLH494 |
|---|---|
| Flight time | N/A |
| Altitude | 38000 |
| Route | GIVMI1N GIVMI Y101 INBED DCT REKDI DCT LOHRE DCT ADKUV DCT BUB DCT DENUT L610 KOPUL Q63 ICTAM L179 SAWPE DCT OZZIL DCT ARPAK DCT FELCA DCT OFSOX DCT SLANY DCT TOBOR/M084F390 NATC ELSIR/N0476F400 N412A MIILS DCT LETAK IMEBA9 |
| Aircraft | A359/H-SDE2E3GHIJ3J4J5LM1ORWXY/LB1D1 |
Departure
| Time | N/A |
|---|---|
| Airport | Munich Airport (EDDM) |
Arrival
| Time | 2026-05-06 17:02 |
|---|---|
| Airport | Toronto Pearson International Airport (CYYZ) |
| Time | Latitude | Longitude | Altitude | Speed | Heading |
|---|---|---|---|---|---|
| 2026-05-06 10:46 | 52.47615 | -12.44793 | 38067 ft | 479 kts | 274° |
| 2026-05-06 10:47 | 52.47723 | -12.50272 | 38065 ft | 479 kts | 274° |
| 2026-05-06 10:47 | 52.47931 | -12.61207 | 38062 ft | 479 kts | 274° |
| 2026-05-06 10:48 | 52.48130 | -12.72149 | 38062 ft | 479 kts | 274° |
| 2026-05-06 10:48 | 52.48319 | -12.83087 | 38062 ft | 479 kts | 274° |
| 2026-05-06 10:49 | 52.48497 | -12.94026 | 38064 ft | 479 kts | 273° |
| 2026-05-06 10:49 | 52.48664 | -13.04881 | 38056 ft | 479 kts | 273° |
| 2026-05-06 10:50 | 52.48822 | -13.15828 | 38070 ft | 479 kts | 273° |
| 2026-05-06 10:50 | 52.48971 | -13.26766 | 38069 ft | 479 kts | 273° |
| 2026-05-06 10:51 | 52.49086 | -13.35863 | 38072 ft | 479 kts | 273° |
| 2026-05-06 10:51 | 52.49216 | -13.46795 | 38069 ft | 478 kts | 273° |
| 2026-05-06 10:52 | 52.49334 | -13.57698 | 38050 ft | 477 kts | 273° |
| 2026-05-06 10:52 | 52.49443 | -13.68567 | 38063 ft | 477 kts | 273° |
| 2026-05-06 10:53 | 52.49542 | -13.79445 | 38071 ft | 477 kts | 273° |
| 2026-05-06 10:53 | 52.49632 | -13.90334 | 38065 ft | 477 kts | 273° |
| 2026-05-06 10:54 | 52.49711 | -14.01224 | 38078 ft | 477 kts | 272° |
| 2026-05-06 10:54 | 52.49779 | -14.12060 | 38065 ft | 477 kts | 272° |
| 2026-05-06 10:55 | 52.49838 | -14.22934 | 38066 ft | 477 kts | 272° |
| 2026-05-06 10:55 | 52.49888 | -14.33815 | 38065 ft | 477 kts | 272° |
| 2026-05-06 10:56 | 52.49927 | -14.44705 | 38071 ft | 477 kts | 272° |
| 2026-05-06 10:56 | 52.49956 | -14.55601 | 38080 ft | 477 kts | 272° |
| 2026-05-06 10:57 | 52.49975 | -14.66480 | 38061 ft | 476 kts | 272° |
| 2026-05-06 10:57 | 52.49984 | -14.77360 | 38069 ft | 476 kts | 272° |
| 2026-05-06 10:58 | 52.49984 | -14.88162 | 38068 ft | 476 kts | 272° |
| 2026-05-06 10:58 | 52.50084 | -14.99021 | 38070 ft | 474 kts | 277° |
| 2026-05-06 10:59 | 52.51128 | -15.09684 | 38066 ft | 472 kts | 282° |
| 2026-05-06 10:59 | 52.52396 | -15.20277 | 38070 ft | 472 kts | 283° |
| 2026-05-06 11:00 | 52.53681 | -15.30776 | 38070 ft | 472 kts | 283° |
| 2026-05-06 11:00 | 52.54956 | -15.41364 | 38070 ft | 472 kts | 283° |
| 2026-05-06 11:01 | 52.56209 | -15.51942 | 38068 ft | 472 kts | 283° |
| 2026-05-06 11:01 | 52.57448 | -15.62529 | 38069 ft | 472 kts | 283° |
| 2026-05-06 11:02 | 52.58679 | -15.73130 | 38070 ft | 472 kts | 283° |
| 2026-05-06 11:02 | 52.59896 | -15.83689 | 38069 ft | 472 kts | 282° |
| 2026-05-06 11:03 | 52.61109 | -15.94304 | 38069 ft | 472 kts | 282° |
| 2026-05-06 11:03 | 52.62314 | -16.04928 | 38066 ft | 472 kts | 282° |
| 2026-05-06 11:04 | 52.63508 | -16.15551 | 38063 ft | 472 kts | 282° |
| 2026-05-06 11:04 | 52.64690 | -16.26162 | 38062 ft | 470 kts | 282° |
| 2026-05-06 11:05 | 52.65852 | -16.36683 | 38067 ft | 469 kts | 282° |
| 2026-05-06 11:05 | 52.67012 | -16.47267 | 38069 ft | 469 kts | 282° |
| 2026-05-06 11:06 | 52.68163 | -16.57871 | 38066 ft | 469 kts | 282° |
| 2026-05-06 11:06 | 52.69305 | -16.68478 | 38067 ft | 469 kts | 282° |
| 2026-05-06 11:07 | 52.70436 | -16.79082 | 38048 ft | 469 kts | 282° |
| 2026-05-06 11:07 | 52.71559 | -16.89698 | 38064 ft | 470 kts | 281° |
| 2026-05-06 11:08 | 52.72665 | -17.00245 | 38064 ft | 470 kts | 281° |
| 2026-05-06 11:08 | 52.73767 | -17.10862 | 38064 ft | 470 kts | 281° |
| 2026-05-06 11:09 | 52.74862 | -17.21499 | 38066 ft | 469 kts | 281° |
| 2026-05-06 11:09 | 52.75943 | -17.32099 | 38064 ft | 468 kts | 281° |
| 2026-05-06 11:10 | 52.77013 | -17.42692 | 38064 ft | 468 kts | 281° |
| 2026-05-06 11:10 | 52.78074 | -17.53297 | 38064 ft | 468 kts | 281° |
| 2026-05-06 11:11 | 52.79120 | -17.63846 | 38064 ft | 468 kts | 281° |
| 2026-05-06 11:11 | 52.80163 | -17.74460 | 38064 ft | 468 kts | 281° |
| 2026-05-06 11:12 | 52.81196 | -17.85085 | 38064 ft | 468 kts | 280° |
| 2026-05-06 11:12 | 52.82220 | -17.95710 | 38062 ft | 468 kts | 280° |
| 2026-05-06 11:13 | 52.83229 | -18.06291 | 38064 ft | 467 kts | 280° |
| 2026-05-06 11:13 | 52.84233 | -18.16915 | 38065 ft | 467 kts | 280° |
| 2026-05-06 11:14 | 52.85227 | -18.27543 | 38061 ft | 466 kts | 280° |
| 2026-05-06 11:14 | 52.86208 | -18.38141 | 38061 ft | 466 kts | 280° |
| 2026-05-06 11:15 | 52.87180 | -18.48750 | 38054 ft | 466 kts | 279° |
| 2026-05-06 11:15 | 52.88136 | -18.59283 | 38060 ft | 466 kts | 279° |
| 2026-05-06 11:16 | 52.89091 | -18.69916 | 38061 ft | 466 kts | 279° |
| 2026-05-06 11:16 | 52.90035 | -18.80537 | 38060 ft | 466 kts | 279° |
| 2026-05-06 11:17 | 52.90965 | -18.91112 | 38061 ft | 466 kts | 279° |
| 2026-05-06 11:17 | 52.91889 | -19.01731 | 38065 ft | 466 kts | 279° |
| 2026-05-06 11:18 | 52.92806 | -19.12374 | 38057 ft | 467 kts | 279° |
| 2026-05-06 11:18 | 52.93714 | -19.23041 | 38070 ft | 467 kts | 278° |
| 2026-05-06 11:19 | 52.94612 | -19.33699 | 38058 ft | 466 kts | 278° |
| 2026-05-06 11:19 | 52.95498 | -19.44349 | 38061 ft | 466 kts | 278° |
| 2026-05-06 11:20 | 52.96376 | -19.55006 | 38060 ft | 466 kts | 278° |
| 2026-05-06 11:20 | 52.97241 | -19.65619 | 38061 ft | 466 kts | 278° |
| 2026-05-06 11:21 | 52.98101 | -19.76295 | 38064 ft | 468 kts | 278° |
| 2026-05-06 11:21 | 52.98954 | -19.87012 | 38064 ft | 468 kts | 278° |
| 2026-05-06 11:22 | 52.99797 | -19.97732 | 38064 ft | 468 kts | 278° |
| 2026-05-06 11:22 | 53.00489 | -20.08418 | 38067 ft | 468 kts | 274° |
| 2026-05-06 11:23 | 53.00865 | -20.19222 | 38055 ft | 468 kts | 274° |
| 2026-05-06 11:23 | 53.01221 | -20.30044 | 38066 ft | 469 kts | 273° |
| 2026-05-06 11:24 | 53.01617 | -20.40879 | 38065 ft | 469 kts | 274° |
| 2026-05-06 11:24 | 53.02027 | -20.51641 | 38064 ft | 469 kts | 274° |
| 2026-05-06 11:25 | 53.02434 | -20.62472 | 38067 ft | 469 kts | 274° |
| 2026-05-06 11:25 | 53.02829 | -20.73302 | 38067 ft | 469 kts | 274° |
| 2026-05-06 11:26 | 53.03213 | -20.84141 | 38067 ft | 471 kts | 273° |
| 2026-05-06 11:26 | 53.03588 | -20.95022 | 38067 ft | 471 kts | 273° |
| 2026-05-06 11:27 | 53.03950 | -21.05827 | 38067 ft | 471 kts | 273° |
| 2026-05-06 11:27 | 53.04305 | -21.16713 | 38067 ft | 471 kts | 273° |
| 2026-05-06 11:28 | 53.04651 | -21.27614 | 38068 ft | 471 kts | 272° |
| 2026-05-06 11:28 | 53.04987 | -21.38510 | 38067 ft | 471 kts | 272° |
| 2026-05-06 11:29 | 53.05311 | -21.49327 | 38076 ft | 471 kts | 272° |
| 2026-05-06 11:29 | 53.05626 | -21.60211 | 38067 ft | 471 kts | 272° |
| 2026-05-06 11:30 | 53.05931 | -21.71082 | 38070 ft | 471 kts | 272° |
| 2026-05-06 11:30 | 53.06226 | -21.81961 | 38071 ft | 471 kts | 272° |
| 2026-05-06 11:31 | 53.06512 | -21.92855 | 38074 ft | 472 kts | 272° |
| 2026-05-06 11:31 | 53.06788 | -22.03758 | 38074 ft | 472 kts | 272° |
| 2026-05-06 11:32 | 53.07053 | -22.14612 | 38069 ft | 472 kts | 271° |
| 2026-05-06 11:32 | 53.07309 | -22.25536 | 38067 ft | 472 kts | 271° |
| 2026-05-06 11:33 | 53.07556 | -22.36467 | 38069 ft | 472 kts | 271° |
| 2026-05-06 11:33 | 53.07793 | -22.47391 | 38069 ft | 473 kts | 271° |
| 2026-05-06 11:34 | 53.08018 | -22.58276 | 38078 ft | 473 kts | 271° |
| 2026-05-06 11:34 | 53.08235 | -22.69231 | 38075 ft | 473 kts | 271° |
| 2026-05-06 11:35 | 53.08441 | -22.80172 | 38075 ft | 473 kts | 271° |
| 2026-05-06 11:35 | 53.08638 | -22.91111 | 38075 ft | 473 kts | 271° |
| 2026-05-06 11:36 | 53.08825 | -23.02064 | 38079 ft | 473 kts | 270° |
| 2026-05-06 11:36 | 53.09001 | -23.12949 | 38078 ft | 474 kts | 270° |
| 2026-05-06 11:37 | 53.09167 | -23.23899 | 38081 ft | 474 kts | 270° |
| 2026-05-06 11:37 | 53.09324 | -23.34878 | 38080 ft | 474 kts | 270° |
| 2026-05-06 11:38 | 53.09471 | -23.45837 | 38078 ft | 474 kts | 270° |
| 2026-05-06 11:38 | 53.09607 | -23.56802 | 38079 ft | 474 kts | 269° |
| 2026-05-06 11:39 | 53.09734 | -23.67777 | 38078 ft | 475 kts | 269° |
| 2026-05-06 11:39 | 53.09851 | -23.78764 | 38078 ft | 475 kts | 269° |
| 2026-05-06 11:40 | 53.09956 | -23.89684 | 38082 ft | 475 kts | 269° |
| 2026-05-06 11:40 | 53.10053 | -24.00681 | 38078 ft | 475 kts | 269° |
| 2026-05-06 11:41 | 53.10139 | -24.11678 | 38080 ft | 475 kts | 269° |
| 2026-05-06 11:41 | 53.10204 | -24.20834 | 38078 ft | 476 kts | 269° |
| 2026-05-06 11:42 | 53.10272 | -24.31872 | 38078 ft | 476 kts | 269° |
| 2026-05-06 11:42 | 53.10330 | -24.42900 | 38078 ft | 476 kts | 269° |
| 2026-05-06 11:43 | 53.10378 | -24.53941 | 38078 ft | 476 kts | 269° |
| 2026-05-06 11:43 | 53.10415 | -24.64962 | 38078 ft | 476 kts | 268° |
| 2026-05-06 11:44 | 53.10452 | -24.81456 | 38078 ft | 477 kts | 268° |
| 2026-05-06 11:44 | 53.10464 | -24.92520 | 38078 ft | 477 kts | 268° |
| 2026-05-06 11:45 | 53.10466 | -25.03577 | 38078 ft | 477 kts | 268° |
| 2026-05-06 11:45 | 53.10458 | -25.14558 | 38078 ft | 478 kts | 268° |
| 2026-05-06 11:46 | 53.10439 | -25.25628 | 38077 ft | 478 kts | 268° |
| 2026-05-06 11:46 | 53.10411 | -25.36689 | 38077 ft | 478 kts | 268° |
| 2026-05-06 11:47 | 53.10372 | -25.47753 | 38074 ft | 478 kts | 268° |
| 2026-05-06 11:47 | 53.10322 | -25.58829 | 38078 ft | 478 kts | 268° |
| 2026-05-06 11:48 | 53.10262 | -25.69883 | 38072 ft | 478 kts | 268° |
| 2026-05-06 11:48 | 53.10193 | -25.80890 | 38077 ft | 478 kts | 268° |
| 2026-05-06 11:49 | 53.10113 | -25.91956 | 38071 ft | 478 kts | 268° |
| 2026-05-06 11:49 | 53.10022 | -26.03017 | 38076 ft | 478 kts | 268° |
| 2026-05-06 11:50 | 53.09922 | -26.14082 | 38073 ft | 478 kts | 267° |
| 2026-05-06 11:50 | 53.09811 | -26.25167 | 38059 ft | 478 kts | 267° |
| 2026-05-06 11:51 | 53.09689 | -26.36236 | 38060 ft | 478 kts | 267° |
| 2026-05-06 11:51 | 53.09558 | -26.47302 | 38060 ft | 478 kts | 267° |
| 2026-05-06 11:52 | 53.09417 | -26.58307 | 38065 ft | 478 kts | 267° |
| 2026-05-06 11:52 | 53.09265 | -26.69377 | 38057 ft | 478 kts | 267° |
| 2026-05-06 11:53 | 53.09102 | -26.80434 | 38055 ft | 478 kts | 267° |
| 2026-05-06 11:53 | 53.08930 | -26.91514 | 38067 ft | 478 kts | 267° |
| 2026-05-06 11:54 | 53.08747 | -27.02581 | 38065 ft | 478 kts | 267° |
| 2026-05-06 11:54 | 53.08555 | -27.13571 | 38067 ft | 478 kts | 267° |
| 2026-05-06 11:55 | 53.08351 | -27.24637 | 38063 ft | 478 kts | 266° |
| 2026-05-06 11:55 | 53.08138 | -27.35702 | 38060 ft | 478 kts | 266° |
| 2026-05-06 11:56 | 53.07914 | -27.46764 | 38054 ft | 478 kts | 266° |
| 2026-05-06 11:56 | 53.07679 | -27.57842 | 38046 ft | 479 kts | 266° |
| 2026-05-06 11:57 | 53.07436 | -27.68844 | 38039 ft | 479 kts | 266° |
| 2026-05-06 11:57 | 53.07182 | -27.79927 | 38037 ft | 479 kts | 266° |
| 2026-05-06 11:58 | 53.06917 | -27.91007 | 38052 ft | 479 kts | 266° |
| 2026-05-06 11:58 | 53.06640 | -28.02096 | 38043 ft | 479 kts | 266° |
| 2026-05-06 11:59 | 53.06354 | -28.13167 | 38041 ft | 480 kts | 266° |
| 2026-05-06 11:59 | 53.06058 | -28.24258 | 38030 ft | 480 kts | 266° |
| 2026-05-06 12:00 | 53.05751 | -28.35342 | 38032 ft | 480 kts | 266° |
| 2026-05-06 12:00 | 53.05436 | -28.46353 | 38028 ft | 480 kts | 266° |
| 2026-05-06 12:01 | 53.05109 | -28.57434 | 38035 ft | 480 kts | 266° |
| 2026-05-06 12:01 | 53.04770 | -28.68540 | 38031 ft | 480 kts | 266° |
| 2026-05-06 12:02 | 53.04421 | -28.79637 | 38034 ft | 481 kts | 266° |
| 2026-05-06 12:02 | 53.04065 | -28.90679 | 38027 ft | 482 kts | 266° |
| 2026-05-06 12:03 | 53.03695 | -29.01792 | 38020 ft | 482 kts | 266° |
| 2026-05-06 12:03 | 53.03315 | -29.12901 | 38025 ft | 481 kts | 266° |
| 2026-05-06 12:04 | 53.02923 | -29.24026 | 38022 ft | 482 kts | 266° |
| 2026-05-06 12:04 | 53.02521 | -29.35166 | 38022 ft | 482 kts | 265° |
| 2026-05-06 12:05 | 53.02109 | -29.46285 | 38014 ft | 482 kts | 265° |
| 2026-05-06 12:05 | 53.01690 | -29.57337 | 38009 ft | 482 kts | 265° |
| 2026-05-06 12:06 | 53.01257 | -29.68451 | 38015 ft | 482 kts | 265° |
| 2026-05-06 12:06 | 53.00814 | -29.79564 | 38003 ft | 482 kts | 265° |
| 2026-05-06 12:07 | 53.00362 | -29.90659 | 38014 ft | 482 kts | 265° |
| 2026-05-06 12:07 | 52.99901 | -30.01782 | 38007 ft | 483 kts | 265° |
| 2026-05-06 12:08 | 52.99718 | -30.12920 | 38009 ft | 483 kts | 269° |
| 2026-05-06 12:08 | 52.99704 | -30.24078 | 38004 ft | 483 kts | 269° |
| 2026-05-06 12:09 | 52.99647 | -30.35227 | 38011 ft | 481 kts | 268° |
| 2026-05-06 12:09 | 52.99538 | -30.46253 | 38004 ft | 480 kts | 268° |
| 2026-05-06 12:10 | 52.99402 | -30.57359 | 38003 ft | 480 kts | 268° |
| 2026-05-06 12:10 | 52.99256 | -30.68436 | 38009 ft | 480 kts | 268° |
| 2026-05-06 12:11 | 52.99101 | -30.79538 | 38011 ft | 480 kts | 268° |
| 2026-05-06 12:11 | 52.98937 | -30.90622 | 38020 ft | 480 kts | 268° |
| 2026-05-06 12:12 | 52.98763 | -31.01686 | 38014 ft | 479 kts | 268° |
| 2026-05-06 12:12 | 52.98579 | -31.12740 | 38029 ft | 481 kts | 268° |
| 2026-05-06 12:13 | 52.98386 | -31.23773 | 38028 ft | 479 kts | 268° |
| 2026-05-06 12:13 | 52.98181 | -31.34851 | 38034 ft | 481 kts | 268° |
| 2026-05-06 12:14 | 52.97966 | -31.45938 | 38032 ft | 479 kts | 267° |
| 2026-05-06 12:14 | 52.97742 | -31.56951 | 38043 ft | 481 kts | 267° |
| 2026-05-06 12:15 | 52.97506 | -31.68017 | 38040 ft | 480 kts | 267° |
| 2026-05-06 12:15 | 52.97260 | -31.79106 | 38047 ft | 481 kts | 267° |
| 2026-05-06 12:16 | 52.97003 | -31.90178 | 38047 ft | 480 kts | 267° |
| 2026-05-06 12:16 | 52.96737 | -32.01261 | 38046 ft | 481 kts | 267° |
| 2026-05-06 12:17 | 52.96459 | -32.12349 | 38045 ft | 482 kts | 267° |
| 2026-05-06 12:17 | 52.96170 | -32.23474 | 38043 ft | 482 kts | 267° |
| 2026-05-06 12:18 | 52.95872 | -32.34575 | 38050 ft | 483 kts | 267° |
| 2026-05-06 12:18 | 52.95564 | -32.45636 | 38047 ft | 482 kts | 267° |
| 2026-05-06 12:19 | 52.95244 | -32.56755 | 38058 ft | 483 kts | 266° |
| 2026-05-06 12:19 | 52.94914 | -32.67886 | 38060 ft | 482 kts | 266° |
| 2026-05-06 12:20 | 52.94574 | -32.79007 | 38060 ft | 483 kts | 266° |
| 2026-05-06 12:20 | 52.94223 | -32.90108 | 38061 ft | 482 kts | 266° |
| 2026-05-06 12:21 | 52.93864 | -33.01154 | 38065 ft | 483 kts | 266° |
| 2026-05-06 12:21 | 52.93491 | -33.12286 | 38070 ft | 484 kts | 266° |
| 2026-05-06 12:22 | 52.93108 | -33.23424 | 38074 ft | 484 kts | 266° |
| 2026-05-06 12:22 | 52.92716 | -33.34566 | 38074 ft | 484 kts | 266° |
| 2026-05-06 12:23 | 52.92312 | -33.45694 | 38077 ft | 484 kts | 266° |
| 2026-05-06 12:23 | 52.91900 | -33.56769 | 38071 ft | 484 kts | 266° |
| 2026-05-06 12:24 | 52.91476 | -33.67892 | 38079 ft | 484 kts | 266° |
| 2026-05-06 12:24 | 52.91040 | -33.79041 | 38081 ft | 484 kts | 266° |
| 2026-05-06 12:25 | 52.90595 | -33.90156 | 38082 ft | 484 kts | 266° |
| 2026-05-06 12:25 | 52.90143 | -34.01203 | 38088 ft | 483 kts | 266° |
| 2026-05-06 12:26 | 52.89677 | -34.12316 | 38086 ft | 484 kts | 265° |
| 2026-05-06 12:26 | 52.89200 | -34.23445 | 38094 ft | 484 kts | 265° |
| 2026-05-06 12:27 | 52.88713 | -34.34575 | 38095 ft | 484 kts | 265° |
| 2026-05-06 12:27 | 52.88215 | -34.45705 | 38093 ft | 484 kts | 265° |
| 2026-05-06 12:28 | 52.87707 | -34.56832 | 38103 ft | 484 kts | 265° |
| 2026-05-06 12:28 | 52.87192 | -34.67876 | 38099 ft | 484 kts | 265° |
| 2026-05-06 12:29 | 52.86662 | -34.79018 | 38096 ft | 484 kts | 265° |
| 2026-05-06 12:29 | 52.86122 | -34.90144 | 38099 ft | 484 kts | 265° |
| 2026-05-06 12:30 | 52.85576 | -35.01180 | 38100 ft | 483 kts | 265° |
| 2026-05-06 12:30 | 52.85017 | -35.12269 | 38111 ft | 483 kts | 265° |
| 2026-05-06 12:31 | 52.84544 | -35.21495 | 38102 ft | 483 kts | 265° |
| 2026-05-06 12:31 | 52.83966 | -35.32582 | 38105 ft | 484 kts | 265° |
| 2026-05-06 12:32 | 52.83378 | -35.43666 | 38115 ft | 483 kts | 265° |
| 2026-05-06 12:32 | 52.82779 | -35.54735 | 38103 ft | 482 kts | 265° |
| 2026-05-06 12:33 | 52.82175 | -35.65718 | 38105 ft | 481 kts | 265° |
| 2026-05-06 12:33 | 52.81560 | -35.76750 | 38108 ft | 481 kts | 265° |
| 2026-05-06 12:34 | 52.80934 | -35.87768 | 38113 ft | 481 kts | 265° |
| 2026-05-06 12:34 | 52.80297 | -35.98784 | 38104 ft | 481 kts | 265° |
| 2026-05-06 12:35 | 52.79649 | -36.09797 | 38100 ft | 481 kts | 265° |
| 2026-05-06 12:35 | 52.78994 | -36.20783 | 38117 ft | 480 kts | 265° |
| 2026-05-06 12:36 | 52.78330 | -36.31748 | 38121 ft | 480 kts | 265° |
| 2026-05-06 12:36 | 52.77659 | -36.42653 | 38110 ft | 480 kts | 265° |
| 2026-05-06 12:37 | 52.76973 | -36.53629 | 38105 ft | 480 kts | 265° |
| 2026-05-06 12:37 | 52.76276 | -36.64600 | 38109 ft | 480 kts | 265° |
| 2026-05-06 12:38 | 52.75571 | -36.75543 | 38106 ft | 479 kts | 265° |
| 2026-05-06 12:38 | 52.74857 | -36.86475 | 38105 ft | 479 kts | 265° |
| 2026-05-06 12:39 | 52.74134 | -36.97405 | 38097 ft | 479 kts | 265° |
| 2026-05-06 12:39 | 52.73404 | -37.08264 | 38095 ft | 479 kts | 265° |
| 2026-05-06 12:40 | 52.72660 | -37.19180 | 38087 ft | 479 kts | 265° |
| 2026-05-06 12:40 | 52.71906 | -37.30092 | 38108 ft | 478 kts | 265° |
| 2026-05-06 12:41 | 52.71142 | -37.41008 | 38344 ft | 478 kts | 264° |
| 2026-05-06 12:41 | 52.70757 | -37.46451 | 38585 ft | 477 kts | 264° |
| 2026-05-06 12:41 | 52.70370 | -37.51892 | 38754 ft | 477 kts | 264° |
| 2026-05-06 12:42 | 52.69980 | -37.57334 | 38890 ft | 477 kts | 264° |
| 2026-05-06 12:42 | 52.69593 | -37.62704 | 39015 ft | 478 kts | 264° |
| 2026-05-06 12:42 | 52.69198 | -37.68154 | 39124 ft | 478 kts | 264° |
| 2026-05-06 12:42 | 52.68800 | -37.73597 | 39259 ft | 478 kts | 264° |
| 2026-05-06 12:43 | 52.68400 | -37.79036 | 39372 ft | 478 kts | 264° |
| 2026-05-06 12:43 | 52.67997 | -37.84489 | 39492 ft | 478 kts | 264° |
| 2026-05-06 12:43 | 52.67593 | -37.89922 | 39615 ft | 478 kts | 264° |
| 2026-05-06 12:43 | 52.67185 | -37.95368 | 39719 ft | 478 kts | 264° |
| 2026-05-06 12:44 | 52.66775 | -38.00806 | 39829 ft | 478 kts | 264° |
| 2026-05-06 12:44 | 52.66362 | -38.06248 | 39939 ft | 478 kts | 264° |
| 2026-05-06 12:44 | 52.65533 | -38.17062 | 40101 ft | 479 kts | 264° |
| 2026-05-06 12:45 | 52.64687 | -38.27969 | 40110 ft | 479 kts | 264° |
| 2026-05-06 12:46 | 52.63401 | -38.44301 | 40111 ft | 479 kts | 264° |
| 2026-05-06 12:46 | 52.62531 | -38.55188 | 40110 ft | 479 kts | 264° |
| 2026-05-06 12:47 | 52.61654 | -38.66029 | 40112 ft | 479 kts | 264° |
| 2026-05-06 12:47 | 52.60764 | -38.76907 | 40113 ft | 479 kts | 264° |
| 2026-05-06 12:48 | 52.59864 | -38.87782 | 40113 ft | 479 kts | 264° |
| 2026-05-06 12:48 | 52.58954 | -38.98647 | 40112 ft | 479 kts | 264° |
| 2026-05-06 12:49 | 52.58037 | -39.09493 | 40116 ft | 478 kts | 263° |
| 2026-05-06 12:49 | 52.57115 | -39.20253 | 40116 ft | 478 kts | 263° |
| 2026-05-06 12:50 | 52.56177 | -39.31091 | 40114 ft | 479 kts | 263° |
| 2026-05-06 12:50 | 52.55229 | -39.41930 | 40116 ft | 479 kts | 263° |
| 2026-05-06 12:51 | 52.54270 | -39.52773 | 40118 ft | 478 kts | 263° |
| 2026-05-06 12:51 | 52.53303 | -39.63591 | 40121 ft | 478 kts | 263° |
| 2026-05-06 12:52 | 52.52327 | -39.74388 | 40117 ft | 478 kts | 263° |
| 2026-05-06 12:52 | 52.51340 | -39.85195 | 40119 ft | 478 kts | 263° |
| 2026-05-06 12:53 | 52.50349 | -39.95921 | 40118 ft | 478 kts | 263° |
| 2026-05-06 12:53 | 52.48693 | -40.06531 | 40116 ft | 480 kts | 255° |
| 2026-05-06 12:54 | 52.46677 | -40.16960 | 40119 ft | 479 kts | 254° |
| 2026-05-06 12:54 | 52.44609 | -40.27276 | 40114 ft | 479 kts | 253° |
| 2026-05-06 12:55 | 52.42503 | -40.37661 | 40116 ft | 480 kts | 253° |
| 2026-05-06 12:55 | 52.40406 | -40.48052 | 40116 ft | 480 kts | 253° |
| 2026-05-06 12:56 | 52.38316 | -40.58427 | 40115 ft | 478 kts | 254° |
| 2026-05-06 12:56 | 52.36231 | -40.68751 | 40118 ft | 478 kts | 253° |
| 2026-05-06 12:57 | 52.34148 | -40.79007 | 40120 ft | 478 kts | 253° |
| 2026-05-06 12:57 | 52.32041 | -40.89323 | 40112 ft | 478 kts | 253° |
| 2026-05-06 12:58 | 52.29929 | -40.99606 | 40113 ft | 477 kts | 253° |
| 2026-05-06 12:58 | 52.27807 | -41.09883 | 40119 ft | 476 kts | 253° |
| 2026-05-06 12:59 | 52.25680 | -41.20134 | 40123 ft | 476 kts | 253° |
| 2026-05-06 12:59 | 52.23560 | -41.30304 | 40126 ft | 476 kts | 253° |
| 2026-05-06 13:00 | 52.21416 | -41.40532 | 40126 ft | 476 kts | 253° |
| 2026-05-06 13:00 | 52.19265 | -41.50743 | 40126 ft | 476 kts | 253° |
| 2026-05-06 13:01 | 52.17107 | -41.60938 | 40131 ft | 476 kts | 253° |
| 2026-05-06 13:01 | 52.14936 | -41.71140 | 40129 ft | 476 kts | 253° |
| 2026-05-06 13:02 | 52.12759 | -41.81323 | 40128 ft | 476 kts | 253° |
| 2026-05-06 13:02 | 52.10586 | -41.91432 | 40130 ft | 476 kts | 253° |
| 2026-05-06 13:03 | 52.08392 | -42.01586 | 40133 ft | 475 kts | 253° |
| 2026-05-06 13:03 | 52.06193 | -42.11717 | 40136 ft | 475 kts | 253° |
| 2026-05-06 13:04 | 52.03987 | -42.21830 | 40142 ft | 475 kts | 253° |
| 2026-05-06 13:04 | 52.01772 | -42.31935 | 40145 ft | 475 kts | 253° |
| 2026-05-06 13:05 | 51.99547 | -42.42036 | 40126 ft | 474 kts | 253° |
| 2026-05-06 13:05 | 51.97316 | -42.52109 | 40143 ft | 474 kts | 253° |
| 2026-05-06 13:06 | 51.95095 | -42.62098 | 40143 ft | 473 kts | 253° |
| 2026-05-06 13:06 | 51.92847 | -42.72155 | 40143 ft | 474 kts | 252° |
| 2026-05-06 13:07 | 51.90594 | -42.82189 | 40144 ft | 474 kts | 252° |
| 2026-05-06 13:07 | 51.88335 | -42.92196 | 40139 ft | 473 kts | 252° |
| 2026-05-06 13:08 | 51.86069 | -43.02190 | 40143 ft | 472 kts | 252° |
| 2026-05-06 13:08 | 51.83793 | -43.12180 | 40143 ft | 472 kts | 252° |
| 2026-05-06 13:09 | 51.81526 | -43.22086 | 40143 ft | 472 kts | 252° |
| 2026-05-06 13:09 | 51.79241 | -43.32024 | 40146 ft | 472 kts | 252° |
| 2026-05-06 13:10 | 51.76944 | -43.41966 | 40149 ft | 471 kts | 252° |
| 2026-05-06 13:10 | 51.74642 | -43.51883 | 40148 ft | 472 kts | 252° |
| 2026-05-06 13:11 | 51.72346 | -43.61729 | 40147 ft | 472 kts | 252° |
| 2026-05-06 13:11 | 51.70030 | -43.71618 | 40146 ft | 472 kts | 252° |
| 2026-05-06 13:12 | 51.67701 | -43.81510 | 40135 ft | 471 kts | 252° |
| 2026-05-06 13:12 | 51.65371 | -43.91364 | 40140 ft | 470 kts | 252° |
| 2026-05-06 13:13 | 51.63035 | -44.01200 | 40143 ft | 469 kts | 252° |
| 2026-05-06 13:13 | 51.60711 | -44.10943 | 40151 ft | 469 kts | 252° |
| 2026-05-06 13:14 | 51.58363 | -44.20740 | 40143 ft | 469 kts | 252° |
| 2026-05-06 13:14 | 51.56009 | -44.30518 | 40146 ft | 467 kts | 252° |
| 2026-05-06 13:15 | 51.53656 | -44.40242 | 40142 ft | 466 kts | 252° |
| 2026-05-06 13:15 | 51.51301 | -44.49940 | 40143 ft | 466 kts | 252° |
| 2026-05-06 13:16 | 51.48942 | -44.59615 | 40139 ft | 466 kts | 251° |
| 2026-05-06 13:16 | 51.46589 | -44.69216 | 40124 ft | 464 kts | 251° |
| 2026-05-06 13:17 | 51.44227 | -44.78809 | 40143 ft | 461 kts | 251° |
| 2026-05-06 13:17 | 51.41864 | -44.88367 | 40144 ft | 461 kts | 251° |
| 2026-05-06 13:18 | 51.39495 | -44.97916 | 40139 ft | 461 kts | 251° |
| 2026-05-06 13:18 | 51.37116 | -45.07458 | 40137 ft | 461 kts | 251° |
| 2026-05-06 13:19 | 51.34746 | -45.16922 | 40138 ft | 460 kts | 251° |
| 2026-05-06 13:19 | 51.32748 | -45.24866 | 40140 ft | 458 kts | 251° |
| 2026-05-06 13:20 | 51.30382 | -45.34245 | 40138 ft | 458 kts | 251° |
| 2026-05-06 13:20 | 51.27991 | -45.43683 | 40135 ft | 458 kts | 251° |
| 2026-05-06 13:21 | 51.25589 | -45.53120 | 40137 ft | 458 kts | 251° |
| 2026-05-06 13:21 | 51.23184 | -45.62530 | 40131 ft | 457 kts | 251° |
| 2026-05-06 13:22 | 51.20795 | -45.71840 | 40132 ft | 456 kts | 251° |
| 2026-05-06 13:22 | 51.18387 | -45.81185 | 40129 ft | 455 kts | 251° |
| 2026-05-06 13:23 | 51.15972 | -45.90519 | 40130 ft | 455 kts | 251° |
| 2026-05-06 13:23 | 51.13549 | -45.99849 | 40129 ft | 455 kts | 250° |
| 2026-05-06 13:24 | 51.11126 | -46.09134 | 40125 ft | 453 kts | 250° |
| 2026-05-06 13:24 | 51.08717 | -46.18328 | 40128 ft | 453 kts | 250° |
| 2026-05-06 13:25 | 51.06286 | -46.27573 | 40123 ft | 453 kts | 250° |
| 2026-05-06 13:25 | 51.03850 | -46.36800 | 40122 ft | 453 kts | 250° |
| 2026-05-06 13:26 | 51.01403 | -46.46031 | 40104 ft | 453 kts | 250° |
| 2026-05-06 13:26 | 50.98952 | -46.55238 | 40119 ft | 452 kts | 250° |
| 2026-05-06 13:27 | 50.96514 | -46.64362 | 40116 ft | 452 kts | 250° |
| 2026-05-06 13:27 | 50.94050 | -46.73544 | 40116 ft | 452 kts | 250° |
| 2026-05-06 13:28 | 50.91575 | -46.82732 | 40116 ft | 452 kts | 250° |
| 2026-05-06 13:28 | 50.89099 | -46.91886 | 40110 ft | 452 kts | 250° |
| 2026-05-06 13:29 | 50.86626 | -47.00994 | 40116 ft | 452 kts | 250° |
| 2026-05-06 13:29 | 50.84131 | -47.10145 | 40111 ft | 452 kts | 249° |
| 2026-05-06 13:30 | 50.81628 | -47.19288 | 40111 ft | 452 kts | 249° |
| 2026-05-06 13:30 | 50.79137 | -47.28355 | 40112 ft | 452 kts | 249° |
| 2026-05-06 13:31 | 50.76622 | -47.37476 | 40112 ft | 453 kts | 249° |
| 2026-05-06 13:31 | 50.74098 | -47.46591 | 40111 ft | 453 kts | 249° |
| 2026-05-06 13:32 | 50.71567 | -47.55694 | 40110 ft | 453 kts | 249° |
| 2026-05-06 13:32 | 50.69030 | -47.64785 | 40104 ft | 453 kts | 249° |
| 2026-05-06 13:33 | 50.66487 | -47.73864 | 40114 ft | 453 kts | 249° |
| 2026-05-06 13:33 | 50.63950 | -47.82884 | 40104 ft | 453 kts | 249° |
| 2026-05-06 13:34 | 50.61391 | -47.91949 | 40103 ft | 453 kts | 249° |
| 2026-05-06 13:34 | 50.58827 | -48.00999 | 40107 ft | 453 kts | 249° |
| 2026-05-06 13:35 | 50.56255 | -48.10039 | 40103 ft | 453 kts | 248° |
| 2026-05-06 13:35 | 50.53675 | -48.19077 | 40090 ft | 453 kts | 248° |
| 2026-05-06 13:36 | 50.51089 | -48.28095 | 40098 ft | 451 kts | 248° |
| 2026-05-06 13:36 | 50.48507 | -48.37072 | 40100 ft | 451 kts | 248° |
| 2026-05-06 13:37 | 50.45916 | -48.46045 | 40106 ft | 451 kts | 248° |
| 2026-05-06 13:37 | 50.43335 | -48.54949 | 40102 ft | 451 kts | 248° |
| 2026-05-06 13:38 | 50.40733 | -48.63891 | 40098 ft | 450 kts | 248° |
| 2026-05-06 13:38 | 50.38135 | -48.72782 | 40099 ft | 448 kts | 248° |
| 2026-05-06 13:39 | 50.35534 | -48.81655 | 40098 ft | 448 kts | 248° |
| 2026-05-06 13:39 | 50.32928 | -48.90516 | 40089 ft | 448 kts | 248° |
| 2026-05-06 13:40 | 50.30318 | -48.99355 | 40093 ft | 448 kts | 248° |
| 2026-05-06 13:40 | 50.27718 | -49.08129 | 40099 ft | 447 kts | 248° |
| 2026-05-06 13:41 | 50.25096 | -49.16941 | 40092 ft | 447 kts | 248° |
| 2026-05-06 13:41 | 50.22472 | -49.25732 | 40094 ft | 447 kts | 248° |
| 2026-05-06 13:42 | 50.19839 | -49.34522 | 40099 ft | 447 kts | 248° |
| 2026-05-06 13:42 | 50.17200 | -49.43295 | 40081 ft | 446 kts | 247° |
| 2026-05-06 13:43 | 50.14559 | -49.52046 | 40091 ft | 445 kts | 247° |
| 2026-05-06 13:43 | 50.11911 | -49.60790 | 40094 ft | 445 kts | 247° |
| 2026-05-06 13:44 | 50.09259 | -49.69516 | 40091 ft | 445 kts | 247° |
| 2026-05-06 13:44 | 50.06596 | -49.78246 | 40091 ft | 445 kts | 247° |
| 2026-05-06 13:45 | 50.03950 | -49.86888 | 40089 ft | 445 kts | 247° |
| 2026-05-06 13:45 | 50.00012 | -49.99913 | 40092 ft | 442 kts | 251° |
| 2026-05-06 13:46 | 49.97793 | -50.08825 | 40095 ft | 441 kts | 251° |
| 2026-05-06 13:46 | 49.95641 | -50.17775 | 40086 ft | 441 kts | 251° |
| 2026-05-06 13:47 | 49.93498 | -50.26703 | 40088 ft | 441 kts | 251° |
| 2026-05-06 13:47 | 49.91361 | -50.35542 | 40085 ft | 439 kts | 251° |
| 2026-05-06 13:48 | 49.89204 | -50.44415 | 40088 ft | 439 kts | 251° |
| 2026-05-06 13:48 | 49.87042 | -50.53264 | 40086 ft | 439 kts | 251° |
| 2026-05-06 13:49 | 49.84870 | -50.62120 | 40088 ft | 439 kts | 251° |
| 2026-05-06 13:49 | 49.82693 | -50.70961 | 40069 ft | 439 kts | 251° |
| 2026-05-06 13:50 | 49.80525 | -50.79732 | 40086 ft | 438 kts | 251° |
| 2026-05-06 13:50 | 49.78340 | -50.88532 | 40093 ft | 438 kts | 251° |
| 2026-05-06 13:51 | 49.76148 | -50.97328 | 40082 ft | 437 kts | 250° |
| 2026-05-06 13:51 | 49.73954 | -51.06097 | 40082 ft | 437 kts | 250° |
| 2026-05-06 13:52 | 49.71751 | -51.14872 | 40069 ft | 437 kts | 250° |
| 2026-05-06 13:52 | 49.69556 | -51.23586 | 40079 ft | 438 kts | 250° |
| 2026-05-06 13:53 | 49.67339 | -51.32345 | 40075 ft | 438 kts | 250° |
| 2026-05-06 13:53 | 49.65114 | -51.41108 | 40076 ft | 438 kts | 250° |
| 2026-05-06 13:54 | 49.62882 | -51.49853 | 40075 ft | 438 kts | 250° |
| 2026-05-06 13:54 | 49.60645 | -51.58588 | 40075 ft | 438 kts | 250° |
| 2026-05-06 13:55 | 49.58397 | -51.67332 | 40072 ft | 438 kts | 249° |
| 2026-05-06 13:55 | 49.56143 | -51.76065 | 40071 ft | 439 kts | 249° |
| 2026-05-06 13:56 | 49.53896 | -51.84738 | 40070 ft | 439 kts | 249° |
| 2026-05-06 13:56 | 49.51626 | -51.93467 | 40072 ft | 437 kts | 249° |
| 2026-05-06 13:57 | 49.49770 | -52.02342 | 40073 ft | 435 kts | 259° |
| 2026-05-06 13:57 | 49.48705 | -52.11486 | 40065 ft | 434 kts | 261° |
| 2026-05-06 13:58 | 49.47767 | -52.20611 | 40062 ft | 434 kts | 261° |
| 2026-05-06 13:58 | 49.46828 | -52.29801 | 40062 ft | 434 kts | 261° |
| 2026-05-06 13:59 | 49.45869 | -52.38971 | 40058 ft | 434 kts | 261° |
| 2026-05-06 13:59 | 49.44895 | -52.48129 | 40059 ft | 434 kts | 261° |
| 2026-05-06 14:00 | 49.43911 | -52.57284 | 40062 ft | 434 kts | 261° |
| 2026-05-06 14:00 | 49.42931 | -52.66374 | 40057 ft | 433 kts | 260° |
| 2026-05-06 14:01 | 49.41941 | -52.75483 | 40051 ft | 432 kts | 259° |
| 2026-05-06 14:01 | 49.40941 | -52.84597 | 40055 ft | 432 kts | 259° |
| 2026-05-06 14:02 | 49.39935 | -52.93696 | 40047 ft | 432 kts | 259° |
| 2026-05-06 14:02 | 49.38919 | -53.02802 | 40047 ft | 432 kts | 259° |
| 2026-05-06 14:03 | 49.37902 | -53.11854 | 40046 ft | 432 kts | 259° |
| 2026-05-06 14:03 | 49.36877 | -53.20943 | 40040 ft | 432 kts | 259° |
| 2026-05-06 14:04 | 49.35845 | -53.30022 | 40047 ft | 432 kts | 259° |
| 2026-05-06 14:04 | 49.34803 | -53.39086 | 40039 ft | 431 kts | 258° |
| 2026-05-06 14:05 | 49.33758 | -53.48132 | 40040 ft | 431 kts | 258° |
| 2026-05-06 14:05 | 49.32707 | -53.57193 | 40035 ft | 431 kts | 258° |
| 2026-05-06 14:06 | 49.31650 | -53.66199 | 40041 ft | 431 kts | 258° |
| 2026-05-06 14:06 | 49.30581 | -53.75238 | 40025 ft | 431 kts | 258° |
| 2026-05-06 14:07 | 49.29504 | -53.84296 | 40037 ft | 433 kts | 258° |
| 2026-05-06 14:07 | 49.28418 | -53.93372 | 40047 ft | 433 kts | 258° |
| 2026-05-06 14:08 | 49.27326 | -54.02430 | 40040 ft | 432 kts | 258° |
| 2026-05-06 14:08 | 49.26414 | -54.09952 | 40039 ft | 432 kts | 257° |
| 2026-05-06 14:09 | 49.25310 | -54.18997 | 40049 ft | 432 kts | 257° |
| 2026-05-06 14:09 | 49.24200 | -54.28034 | 40042 ft | 432 kts | 257° |
| 2026-05-06 14:10 | 49.23088 | -54.37016 | 40039 ft | 433 kts | 257° |
| 2026-05-06 14:10 | 49.21961 | -54.46081 | 40050 ft | 433 kts | 257° |
| 2026-05-06 14:11 | 49.20826 | -54.55133 | 40056 ft | 433 kts | 257° |
| 2026-05-06 14:11 | 49.19682 | -54.64191 | 40068 ft | 433 kts | 257° |
| 2026-05-06 14:12 | 49.18535 | -54.73235 | 40050 ft | 432 kts | 257° |
| 2026-05-06 14:12 | 49.17385 | -54.82208 | 40049 ft | 432 kts | 257° |
| 2026-05-06 14:13 | 49.16226 | -54.91227 | 40054 ft | 433 kts | 256° |
| 2026-05-06 14:13 | 49.15055 | -55.00279 | 40038 ft | 434 kts | 256° |
| 2026-05-06 14:14 | 49.13874 | -55.09333 | 40050 ft | 434 kts | 256° |
| 2026-05-06 14:14 | 49.12688 | -55.18362 | 40050 ft | 434 kts | 256° |
| 2026-05-06 14:15 | 49.11504 | -55.27334 | 40064 ft | 434 kts | 256° |
| 2026-05-06 14:15 | 49.10303 | -55.36354 | 40054 ft | 432 kts | 256° |
| 2026-05-06 14:16 | 49.09099 | -55.45346 | 40049 ft | 432 kts | 256° |
| 2026-05-06 14:16 | 49.07889 | -55.54349 | 40056 ft | 433 kts | 256° |
| 2026-05-06 14:17 | 49.06667 | -55.63353 | 40057 ft | 434 kts | 256° |
| 2026-05-06 14:17 | 49.05445 | -55.72305 | 40057 ft | 434 kts | 255° |
| 2026-05-06 14:18 | 49.04210 | -55.81303 | 40050 ft | 434 kts | 255° |
| 2026-05-06 14:18 | 49.02968 | -55.90303 | 40054 ft | 433 kts | 255° |
| 2026-05-06 14:19 | 49.01723 | -55.99290 | 40051 ft | 432 kts | 255° |
| 2026-05-06 14:19 | 49.00471 | -56.08257 | 40047 ft | 433 kts | 255° |
| 2026-05-06 14:20 | 48.99217 | -56.17181 | 40049 ft | 433 kts | 255° |
| 2026-05-06 14:20 | 48.97948 | -56.26155 | 40048 ft | 433 kts | 255° |
| 2026-05-06 14:21 | 48.96668 | -56.35136 | 40042 ft | 433 kts | 255° |
| 2026-05-06 14:21 | 48.95385 | -56.44094 | 40048 ft | 433 kts | 255° |
| 2026-05-06 14:22 | 48.94103 | -56.52995 | 40046 ft | 433 kts | 255° |
| 2026-05-06 14:22 | 48.92808 | -56.61948 | 40042 ft | 433 kts | 255° |
| 2026-05-06 14:23 | 48.91509 | -56.70871 | 40040 ft | 432 kts | 255° |
| 2026-05-06 14:23 | 48.90201 | -56.79810 | 40038 ft | 432 kts | 255° |
| 2026-05-06 14:24 | 48.88888 | -56.88728 | 40032 ft | 432 kts | 255° |
| 2026-05-06 14:24 | 48.87568 | -56.97636 | 40029 ft | 432 kts | 255° |
| 2026-05-06 14:25 | 48.86248 | -57.06476 | 40034 ft | 432 kts | 255° |
| 2026-05-06 14:25 | 48.84915 | -57.15376 | 40042 ft | 432 kts | 254° |
| 2026-05-06 14:26 | 48.83571 | -57.24289 | 40043 ft | 433 kts | 254° |
| 2026-05-06 14:26 | 48.82219 | -57.33200 | 40043 ft | 433 kts | 254° |
| 2026-05-06 14:27 | 48.80862 | -57.42102 | 40037 ft | 433 kts | 254° |
| 2026-05-06 14:27 | 48.79509 | -57.50932 | 40038 ft | 432 kts | 254° |
| 2026-05-06 14:28 | 48.78140 | -57.59818 | 40044 ft | 433 kts | 254° |
| 2026-05-06 14:28 | 48.76763 | -57.68707 | 40046 ft | 433 kts | 254° |
| 2026-05-06 14:29 | 48.75381 | -57.77579 | 40051 ft | 432 kts | 254° |
| 2026-05-06 14:29 | 48.73990 | -57.86451 | 40070 ft | 433 kts | 254° |
| 2026-05-06 14:30 | 48.72597 | -57.95301 | 40044 ft | 431 kts | 254° |
| 2026-05-06 14:30 | 48.71199 | -58.04130 | 40054 ft | 431 kts | 254° |
| 2026-05-06 14:31 | 48.69794 | -58.12959 | 40044 ft | 431 kts | 254° |
| 2026-05-06 14:31 | 48.68379 | -58.21794 | 40048 ft | 432 kts | 254° |
| 2026-05-06 14:32 | 48.66964 | -58.30580 | 40051 ft | 433 kts | 254° |
| 2026-05-06 14:32 | 48.65533 | -58.39419 | 40055 ft | 433 kts | 254° |
| 2026-05-06 14:33 | 48.64096 | -58.48262 | 40054 ft | 433 kts | 254° |
| 2026-05-06 14:33 | 48.62651 | -58.57088 | 40051 ft | 431 kts | 254° |
| 2026-05-06 14:34 | 48.61207 | -58.65873 | 40050 ft | 430 kts | 254° |
| 2026-05-06 14:34 | 48.59757 | -58.74648 | 40049 ft | 430 kts | 254° |
| 2026-05-06 14:35 | 48.58315 | -58.83346 | 40049 ft | 429 kts | 254° |
| 2026-05-06 14:35 | 48.56857 | -58.92090 | 40040 ft | 429 kts | 254° |
| 2026-05-06 14:36 | 48.55385 | -59.00844 | 40039 ft | 429 kts | 254° |
| 2026-05-06 14:36 | 48.53912 | -59.09576 | 40037 ft | 429 kts | 254° |
| 2026-05-06 14:37 | 48.52434 | -59.18295 | 40036 ft | 428 kts | 254° |
| 2026-05-06 14:37 | 48.50963 | -59.26927 | 40031 ft | 426 kts | 254° |
| 2026-05-06 14:38 | 48.49484 | -59.35577 | 40032 ft | 426 kts | 254° |
| 2026-05-06 14:38 | 48.47998 | -59.44219 | 40030 ft | 426 kts | 253° |
| 2026-05-06 14:39 | 48.46505 | -59.52853 | 40029 ft | 426 kts | 253° |
| 2026-05-06 14:39 | 48.45008 | -59.61476 | 40028 ft | 426 kts | 253° |
| 2026-05-06 14:40 | 48.43512 | -59.70045 | 40028 ft | 426 kts | 253° |
| 2026-05-06 14:40 | 48.41998 | -59.78668 | 40024 ft | 425 kts | 253° |
| 2026-05-06 14:41 | 48.40484 | -59.87262 | 40029 ft | 424 kts | 253° |
| 2026-05-06 14:41 | 48.38963 | -59.95835 | 40020 ft | 424 kts | 253° |
| 2026-05-06 14:42 | 48.37438 | -60.04412 | 40021 ft | 424 kts | 253° |
| 2026-05-06 14:42 | 48.35912 | -60.12938 | 40017 ft | 424 kts | 253° |
| 2026-05-06 14:43 | 48.34373 | -60.21510 | 40009 ft | 424 kts | 253° |
| 2026-05-06 14:43 | 48.32830 | -60.30069 | 40009 ft | 424 kts | 253° |
| 2026-05-06 14:44 | 48.31278 | -60.38617 | 40007 ft | 423 kts | 253° |
| 2026-05-06 14:45 | 48.28962 | -60.51316 | 39996 ft | 421 kts | 252° |
| 2026-05-06 14:45 | 48.27408 | -60.59784 | 39997 ft | 421 kts | 252° |
| 2026-05-06 14:46 | 48.25847 | -60.68254 | 39995 ft | 421 kts | 252° |
| 2026-05-06 14:46 | 48.24282 | -60.76712 | 39994 ft | 421 kts | 252° |
| 2026-05-06 14:47 | 48.22708 | -60.85159 | 39980 ft | 421 kts | 252° |
| 2026-05-06 14:47 | 48.21124 | -60.93615 | 39986 ft | 422 kts | 252° |
| 2026-05-06 14:48 | 48.19545 | -61.02030 | 40009 ft | 422 kts | 252° |
| 2026-05-06 14:48 | 48.17947 | -61.10509 | 39991 ft | 422 kts | 252° |
| 2026-05-06 14:49 | 48.16345 | -61.18978 | 39982 ft | 422 kts | 252° |
| 2026-05-06 14:49 | 48.14736 | -61.27443 | 39983 ft | 422 kts | 252° |
| 2026-05-06 14:50 | 48.13127 | -61.35847 | 39981 ft | 422 kts | 252° |
| 2026-05-06 14:50 | 48.11498 | -61.44318 | 39970 ft | 423 kts | 252° |
| 2026-05-06 14:51 | 48.09869 | -61.52767 | 39973 ft | 423 kts | 252° |
| 2026-05-06 14:51 | 48.08233 | -61.61213 | 39976 ft | 423 kts | 252° |
| 2026-05-06 14:52 | 48.06591 | -61.69664 | 39971 ft | 423 kts | 252° |
| 2026-05-06 14:52 | 48.04948 | -61.78066 | 39972 ft | 423 kts | 252° |
| 2026-05-06 14:53 | 48.03291 | -61.86518 | 39970 ft | 423 kts | 252° |
| 2026-05-06 14:53 | 48.01618 | -61.94991 | 39969 ft | 425 kts | 252° |
| 2026-05-06 14:54 | 47.99954 | -62.03402 | 39966 ft | 425 kts | 252° |
| 2026-05-06 14:54 | 47.98270 | -62.11868 | 39961 ft | 425 kts | 252° |
| 2026-05-06 14:55 | 47.96579 | -62.20331 | 39962 ft | 425 kts | 252° |
| 2026-05-06 14:55 | 47.94882 | -62.28790 | 39963 ft | 425 kts | 251° |
| 2026-05-06 14:56 | 47.93178 | -62.37244 | 39945 ft | 425 kts | 251° |
| 2026-05-06 14:56 | 47.91481 | -62.45640 | 39948 ft | 426 kts | 252° |
| 2026-05-06 14:57 | 47.89762 | -62.54101 | 39956 ft | 426 kts | 251° |
| 2026-05-06 14:57 | 47.88035 | -62.62564 | 39949 ft | 427 kts | 251° |
| 2026-05-06 14:58 | 47.86596 | -62.69592 | 39949 ft | 427 kts | 251° |
| 2026-05-06 14:58 | 47.84858 | -62.78035 | 39949 ft | 426 kts | 251° |
| 2026-05-06 14:59 | 47.83114 | -62.86483 | 39965 ft | 427 kts | 251° |
| 2026-05-06 14:59 | 47.81361 | -62.94940 | 39951 ft | 428 kts | 251° |
| 2026-05-06 15:00 | 47.79597 | -63.03407 | 39952 ft | 428 kts | 251° |
| 2026-05-06 15:00 | 47.77831 | -63.11866 | 39954 ft | 428 kts | 251° |
| 2026-05-06 15:01 | 47.76055 | -63.20324 | 39947 ft | 428 kts | 251° |
| 2026-05-06 15:01 | 47.74284 | -63.28723 | 39943 ft | 428 kts | 251° |
| 2026-05-06 15:02 | 47.72489 | -63.37181 | 39943 ft | 428 kts | 251° |
| 2026-05-06 15:02 | 47.70693 | -63.45615 | 39947 ft | 429 kts | 251° |
| 2026-05-06 15:03 | 47.68887 | -63.54072 | 39938 ft | 429 kts | 251° |
| 2026-05-06 15:03 | 47.67075 | -63.62527 | 39931 ft | 430 kts | 251° |
| 2026-05-06 15:04 | 47.65256 | -63.70979 | 39942 ft | 430 kts | 251° |
| 2026-05-06 15:04 | 47.63434 | -63.79421 | 39936 ft | 429 kts | 251° |
| 2026-05-06 15:05 | 47.61617 | -63.87802 | 39932 ft | 429 kts | 251° |
| 2026-05-06 15:05 | 47.59779 | -63.96234 | 39930 ft | 430 kts | 251° |
| 2026-05-06 15:06 | 47.57935 | -64.04656 | 39955 ft | 430 kts | 251° |
| 2026-05-06 15:06 | 47.56082 | -64.13072 | 39938 ft | 429 kts | 251° |
| 2026-05-06 15:07 | 47.54239 | -64.21430 | 39938 ft | 429 kts | 251° |
| 2026-05-06 15:07 | 47.52378 | -64.29825 | 39934 ft | 429 kts | 251° |
| 2026-05-06 15:08 | 47.50514 | -64.38209 | 39930 ft | 429 kts | 250° |
| 2026-05-06 15:08 | 47.48640 | -64.46599 | 39929 ft | 429 kts | 251° |
| 2026-05-06 15:09 | 47.46762 | -64.54981 | 39927 ft | 429 kts | 251° |
| 2026-05-06 15:09 | 47.44894 | -64.63294 | 39942 ft | 429 kts | 251° |
| 2026-05-06 15:10 | 47.43002 | -64.71661 | 39922 ft | 429 kts | 250° |
| 2026-05-06 15:10 | 47.41106 | -64.80010 | 39921 ft | 429 kts | 250° |
| 2026-05-06 15:11 | 47.39206 | -64.88356 | 39926 ft | 429 kts | 250° |
| 2026-05-06 15:11 | 47.37299 | -64.96702 | 39913 ft | 429 kts | 250° |
| 2026-05-06 15:12 | 47.35399 | -65.04981 | 39912 ft | 429 kts | 250° |
| 2026-05-06 15:12 | 47.33478 | -65.13313 | 39920 ft | 429 kts | 250° |
| 2026-05-06 15:13 | 47.31551 | -65.21648 | 39950 ft | 428 kts | 251° |
| 2026-05-06 15:13 | 47.29638 | -65.29900 | 39914 ft | 427 kts | 250° |
| 2026-05-06 15:14 | 47.27709 | -65.38172 | 39915 ft | 426 kts | 250° |
| 2026-05-06 15:14 | 47.25778 | -65.46430 | 39919 ft | 426 kts | 251° |
| 2026-05-06 15:15 | 47.23843 | -65.54674 | 39915 ft | 426 kts | 250° |
| 2026-05-06 15:15 | 47.21901 | -65.62903 | 39917 ft | 426 kts | 250° |
| 2026-05-06 15:16 | 47.19957 | -65.71121 | 39915 ft | 425 kts | 250° |
| 2026-05-06 15:16 | 47.18018 | -65.79289 | 39952 ft | 425 kts | 250° |
| 2026-05-06 15:17 | 47.16066 | -65.87473 | 39912 ft | 422 kts | 251° |
| 2026-05-06 15:17 | 47.14123 | -65.95595 | 39911 ft | 421 kts | 250° |
| 2026-05-06 15:18 | 47.12177 | -66.03702 | 39905 ft | 421 kts | 250° |
| 2026-05-06 15:18 | 47.10220 | -66.11819 | 39902 ft | 421 kts | 250° |
| 2026-05-06 15:19 | 47.08275 | -66.19863 | 39901 ft | 421 kts | 250° |
| 2026-05-06 15:19 | 47.06308 | -66.27964 | 39893 ft | 421 kts | 250° |
| 2026-05-06 15:20 | 47.04337 | -66.36050 | 39903 ft | 421 kts | 250° |
| 2026-05-06 15:20 | 47.02379 | -66.44052 | 39883 ft | 417 kts | 250° |
| 2026-05-06 15:21 | 47.00418 | -66.52044 | 39889 ft | 416 kts | 250° |
| 2026-05-06 15:21 | 46.98456 | -66.60016 | 39885 ft | 416 kts | 250° |
| 2026-05-06 15:22 | 46.96486 | -66.67992 | 39881 ft | 416 kts | 250° |
| 2026-05-06 15:22 | 46.94513 | -66.75943 | 39880 ft | 416 kts | 250° |
| 2026-05-06 15:23 | 46.92544 | -66.83841 | 39875 ft | 416 kts | 250° |
| 2026-05-06 15:23 | 46.90558 | -66.91785 | 39883 ft | 414 kts | 250° |
| 2026-05-06 15:24 | 46.88583 | -66.99670 | 39883 ft | 411 kts | 250° |
| 2026-05-06 15:24 | 46.87012 | -67.07695 | 39891 ft | 411 kts | 258° |
| 2026-05-06 15:25 | 46.86024 | -67.15909 | 39881 ft | 410 kts | 259° |
| 2026-05-06 15:25 | 46.85059 | -67.24127 | 39882 ft | 410 kts | 259° |
| 2026-05-06 15:26 | 46.84094 | -67.32286 | 39880 ft | 410 kts | 258° |
| 2026-05-06 15:26 | 46.83116 | -67.40495 | 39882 ft | 410 kts | 258° |
| 2026-05-06 15:27 | 46.82131 | -67.48706 | 39865 ft | 409 kts | 258° |
| 2026-05-06 15:27 | 46.81142 | -67.56898 | 39883 ft | 409 kts | 258° |
| 2026-05-06 15:28 | 46.80157 | -67.65014 | 39889 ft | 408 kts | 258° |
| 2026-05-06 15:28 | 46.79159 | -67.73174 | 39891 ft | 408 kts | 258° |
| 2026-05-06 15:29 | 46.78156 | -67.81332 | 39892 ft | 408 kts | 258° |
| 2026-05-06 15:29 | 46.77146 | -67.89496 | 39896 ft | 408 kts | 258° |
| 2026-05-06 15:30 | 46.76131 | -67.97645 | 39916 ft | 407 kts | 258° |
| 2026-05-06 15:30 | 46.75118 | -68.05731 | 39915 ft | 407 kts | 258° |
| 2026-05-06 15:31 | 46.74095 | -68.13849 | 39916 ft | 407 kts | 258° |
| 2026-05-06 15:31 | 46.73065 | -68.21976 | 39920 ft | 407 kts | 258° |
| 2026-05-06 15:32 | 46.71511 | -68.34152 | 39930 ft | 407 kts | 258° |
| 2026-05-06 15:32 | 46.70474 | -68.42212 | 39960 ft | 407 kts | 257° |
| 2026-05-06 15:33 | 46.69427 | -68.50304 | 39946 ft | 406 kts | 257° |
| 2026-05-06 15:33 | 46.68377 | -68.58385 | 39942 ft | 406 kts | 257° |
| 2026-05-06 15:34 | 46.67318 | -68.66461 | 39942 ft | 406 kts | 257° |
| 2026-05-06 15:34 | 46.66253 | -68.74545 | 39942 ft | 406 kts | 257° |
| 2026-05-06 15:35 | 46.65192 | -68.82553 | 39920 ft | 405 kts | 257° |
| 2026-05-06 15:35 | 46.64121 | -68.90598 | 39930 ft | 404 kts | 257° |
| 2026-05-06 15:36 | 46.63049 | -68.98623 | 39932 ft | 404 kts | 257° |
| 2026-05-06 15:36 | 46.61970 | -69.06640 | 39931 ft | 404 kts | 257° |
| 2026-05-06 15:37 | 46.60882 | -69.14659 | 39930 ft | 404 kts | 257° |
| 2026-05-06 15:37 | 46.59792 | -69.22666 | 39926 ft | 404 kts | 257° |
| 2026-05-06 15:38 | 46.58696 | -69.30680 | 39926 ft | 404 kts | 257° |
| 2026-05-06 15:38 | 46.57594 | -69.38680 | 39934 ft | 404 kts | 256° |
| 2026-05-06 15:39 | 46.56487 | -69.46673 | 39919 ft | 403 kts | 256° |
| 2026-05-06 15:39 | 46.55379 | -69.54641 | 39914 ft | 402 kts | 256° |
| 2026-05-06 15:40 | 46.54273 | -69.62539 | 39906 ft | 401 kts | 256° |
| 2026-05-06 15:40 | 46.53156 | -69.70477 | 39903 ft | 401 kts | 256° |
| 2026-05-06 15:41 | 46.52031 | -69.78427 | 39906 ft | 401 kts | 256° |
| 2026-05-06 15:41 | 46.50906 | -69.86353 | 39931 ft | 401 kts | 256° |
| 2026-05-06 15:42 | 46.49771 | -69.94294 | 39907 ft | 402 kts | 256° |
| 2026-05-06 15:42 | 46.48628 | -70.02236 | 39903 ft | 402 kts | 256° |
| 2026-05-06 15:43 | 46.47481 | -70.10177 | 39899 ft | 402 kts | 256° |
| 2026-05-06 15:43 | 46.46331 | -70.18102 | 39900 ft | 401 kts | 256° |
| 2026-05-06 15:44 | 46.45184 | -70.25966 | 39902 ft | 401 kts | 256° |
| 2026-05-06 15:44 | 46.44024 | -70.33882 | 39933 ft | 401 kts | 256° |
| 2026-05-06 15:45 | 46.42860 | -70.41775 | 39896 ft | 401 kts | 255° |
| 2026-05-06 15:45 | 46.41687 | -70.49687 | 39896 ft | 401 kts | 255° |
| 2026-05-06 15:46 | 46.40709 | -70.56255 | 39899 ft | 401 kts | 255° |
| 2026-05-06 15:46 | 46.39523 | -70.64173 | 39903 ft | 401 kts | 256° |
| 2026-05-06 15:47 | 46.38351 | -70.72019 | 39892 ft | 400 kts | 255° |
| 2026-05-06 15:47 | 46.37156 | -70.79911 | 39894 ft | 401 kts | 255° |
| 2026-05-06 15:48 | 46.35959 | -70.87780 | 39901 ft | 400 kts | 255° |
| 2026-05-06 15:48 | 46.34757 | -70.95658 | 39902 ft | 401 kts | 255° |
| 2026-05-06 15:49 | 46.33547 | -71.03541 | 39905 ft | 401 kts | 255° |
| 2026-05-06 15:49 | 46.32335 | -71.11412 | 39900 ft | 400 kts | 255° |
| 2026-05-06 15:50 | 46.31124 | -71.19225 | 39903 ft | 400 kts | 255° |
| 2026-05-06 15:50 | 46.29901 | -71.27090 | 39902 ft | 400 kts | 255° |
| 2026-05-06 15:51 | 46.28670 | -71.34961 | 39908 ft | 402 kts | 255° |
| 2026-05-06 15:51 | 46.27429 | -71.42863 | 39887 ft | 403 kts | 255° |
| 2026-05-06 15:52 | 46.26192 | -71.50707 | 39911 ft | 402 kts | 255° |
| 2026-05-06 15:52 | 46.24939 | -71.58602 | 39910 ft | 402 kts | 255° |
| 2026-05-06 15:53 | 46.23684 | -71.66472 | 39909 ft | 402 kts | 254° |
| 2026-05-06 15:53 | 46.22424 | -71.74342 | 39909 ft | 402 kts | 254° |
| 2026-05-06 15:54 | 46.21156 | -71.82223 | 39912 ft | 404 kts | 254° |
| 2026-05-06 15:54 | 46.19887 | -71.90076 | 39907 ft | 404 kts | 254° |
| 2026-05-06 15:55 | 46.18600 | -71.97999 | 39908 ft | 405 kts | 254° |
| 2026-05-06 15:55 | 46.17306 | -72.05925 | 39905 ft | 404 kts | 254° |
| 2026-05-06 15:56 | 46.16020 | -72.13774 | 39907 ft | 403 kts | 254° |
| 2026-05-06 15:56 | 46.14725 | -72.21640 | 39905 ft | 403 kts | 254° |
| 2026-05-06 15:57 | 46.13421 | -72.29510 | 39907 ft | 404 kts | 254° |
| 2026-05-06 15:57 | 46.12113 | -72.37388 | 39907 ft | 405 kts | 254° |
| 2026-05-06 15:58 | 46.10801 | -72.45248 | 39901 ft | 405 kts | 254° |
| 2026-05-06 15:58 | 46.09479 | -72.53128 | 39902 ft | 405 kts | 254° |
| 2026-05-06 15:59 | 46.08149 | -72.61015 | 39903 ft | 405 kts | 254° |
| 2026-05-06 15:59 | 46.06814 | -72.68894 | 39918 ft | 405 kts | 254° |
| 2026-05-06 16:00 | 46.05471 | -72.76788 | 39907 ft | 405 kts | 253° |
| 2026-05-06 16:00 | 46.04123 | -72.84668 | 39905 ft | 405 kts | 253° |
| 2026-05-06 16:01 | 46.02771 | -72.92543 | 39908 ft | 405 kts | 253° |
| 2026-05-06 16:01 | 46.01424 | -73.00366 | 39907 ft | 405 kts | 253° |
| 2026-05-06 16:02 | 46.00062 | -73.08230 | 39907 ft | 405 kts | 253° |
| 2026-05-06 16:02 | 45.98695 | -73.16093 | 39934 ft | 405 kts | 253° |
| 2026-05-06 16:03 | 45.97317 | -73.23979 | 39909 ft | 408 kts | 253° |
| 2026-05-06 16:03 | 45.95926 | -73.31905 | 39904 ft | 409 kts | 253° |
| 2026-05-06 16:04 | 45.94530 | -73.39827 | 39907 ft | 408 kts | 253° |
| 2026-05-06 16:04 | 45.93130 | -73.47735 | 39910 ft | 407 kts | 253° |
| 2026-05-06 16:05 | 45.91738 | -73.55565 | 39905 ft | 407 kts | 253° |
| 2026-05-06 16:05 | 45.90332 | -73.63433 | 39907 ft | 407 kts | 253° |
| 2026-05-06 16:06 | 45.88919 | -73.71309 | 39900 ft | 407 kts | 253° |
| 2026-05-06 16:06 | 45.87498 | -73.79197 | 39904 ft | 407 kts | 253° |
| 2026-05-06 16:07 | 45.86084 | -73.87015 | 39898 ft | 407 kts | 253° |
| 2026-05-06 16:07 | 45.84654 | -73.94879 | 39898 ft | 407 kts | 253° |
| 2026-05-06 16:08 | 45.83222 | -74.02735 | 39897 ft | 406 kts | 253° |
| 2026-05-06 16:08 | 45.81784 | -74.10587 | 39901 ft | 407 kts | 253° |
| 2026-05-06 16:09 | 45.80344 | -74.18399 | 39889 ft | 408 kts | 253° |
| 2026-05-06 16:09 | 45.78892 | -74.26264 | 39893 ft | 408 kts | 253° |
| 2026-05-06 16:10 | 45.77431 | -74.34139 | 39887 ft | 408 kts | 253° |
| 2026-05-06 16:10 | 45.75966 | -74.41998 | 39896 ft | 408 kts | 253° |
| 2026-05-06 16:11 | 45.74497 | -74.49850 | 39895 ft | 408 kts | 252° |
| 2026-05-06 16:11 | 45.73015 | -74.57720 | 39898 ft | 410 kts | 252° |
| 2026-05-06 16:12 | 45.71533 | -74.65566 | 39894 ft | 412 kts | 252° |
| 2026-05-06 16:12 | 45.70784 | -74.69527 | 40028 ft | 412 kts | 252° |
| 2026-05-06 16:12 | 45.70033 | -74.73486 | 40188 ft | 412 kts | 252° |
| 2026-05-06 16:13 | 45.69280 | -74.77445 | 40340 ft | 412 kts | 252° |
| 2026-05-06 16:13 | 45.68525 | -74.81405 | 40514 ft | 412 kts | 252° |
| 2026-05-06 16:13 | 45.67771 | -74.85356 | 40666 ft | 413 kts | 253° |
| 2026-05-06 16:13 | 45.67014 | -74.89316 | 40812 ft | 413 kts | 253° |
| 2026-05-06 16:14 | 45.66254 | -74.93283 | 40954 ft | 413 kts | 253° |
| 2026-05-06 16:14 | 45.65494 | -74.97249 | 41113 ft | 414 kts | 253° |
| 2026-05-06 16:14 | 45.64729 | -75.01221 | 41215 ft | 416 kts | 253° |
| 2026-05-06 16:14 | 45.63959 | -75.05208 | 41279 ft | 417 kts | 253° |
| 2026-05-06 16:15 | 45.63186 | -75.09207 | 41414 ft | 417 kts | 253° |
| 2026-05-06 16:15 | 45.62413 | -75.13203 | 41564 ft | 417 kts | 253° |
| 2026-05-06 16:15 | 45.61647 | -75.17150 | 41683 ft | 417 kts | 253° |
| 2026-05-06 16:15 | 45.60871 | -75.21140 | 41813 ft | 417 kts | 253° |
| 2026-05-06 16:16 | 45.59304 | -75.29169 | 41880 ft | 422 kts | 253° |
| 2026-05-06 16:16 | 45.57711 | -75.37296 | 41873 ft | 427 kts | 253° |
| 2026-05-06 16:17 | 45.56103 | -75.45467 | 41867 ft | 427 kts | 253° |
| 2026-05-06 16:17 | 45.54486 | -75.53652 | 41870 ft | 428 kts | 253° |
| 2026-05-06 16:18 | 45.52873 | -75.61779 | 41869 ft | 429 kts | 253° |
| 2026-05-06 16:18 | 45.51245 | -75.69957 | 41869 ft | 429 kts | 253° |
| 2026-05-06 16:19 | 45.49609 | -75.78131 | 41868 ft | 428 kts | 253° |
| 2026-05-06 16:19 | 45.47965 | -75.86306 | 41880 ft | 429 kts | 253° |
| 2026-05-06 16:20 | 45.46315 | -75.94491 | 41870 ft | 430 kts | 253° |
| 2026-05-06 16:20 | 45.44658 | -76.02680 | 41868 ft | 430 kts | 253° |
| 2026-05-06 16:21 | 45.43002 | -76.10810 | 41870 ft | 430 kts | 253° |
| 2026-05-06 16:21 | 45.41332 | -76.18988 | 41871 ft | 430 kts | 253° |
| 2026-05-06 16:22 | 45.39247 | -76.26938 | 41872 ft | 429 kts | 243° |
| 2026-05-06 16:22 | 45.36354 | -76.34402 | 41891 ft | 431 kts | 241° |
| 2026-05-06 16:23 | 45.33416 | -76.41834 | 41872 ft | 432 kts | 242° |
| 2026-05-06 16:23 | 45.30497 | -76.49230 | 41872 ft | 431 kts | 242° |
| 2026-05-06 16:24 | 45.27543 | -76.56700 | 41872 ft | 431 kts | 242° |
| 2026-05-06 16:24 | 45.24616 | -76.64080 | 41873 ft | 431 kts | 242° |
| 2026-05-06 16:25 | 45.21668 | -76.71500 | 41876 ft | 431 kts | 242° |
| 2026-05-06 16:25 | 45.18714 | -76.78908 | 41867 ft | 431 kts | 242° |
| 2026-05-06 16:26 | 45.15762 | -76.86298 | 41874 ft | 431 kts | 242° |
| 2026-05-06 16:26 | 45.12804 | -76.93678 | 41894 ft | 431 kts | 242° |
| 2026-05-06 16:27 | 45.09855 | -77.01021 | 41882 ft | 431 kts | 242° |
| 2026-05-06 16:27 | 45.06887 | -77.08390 | 41870 ft | 431 kts | 241° |
| 2026-05-06 16:28 | 45.03913 | -77.15754 | 41872 ft | 431 kts | 242° |
| 2026-05-06 16:28 | 45.00933 | -77.23112 | 41849 ft | 430 kts | 241° |
| 2026-05-06 16:29 | 44.98256 | -77.29706 | 41863 ft | 430 kts | 242° |
| 2026-05-06 16:29 | 44.95337 | -77.36881 | 41863 ft | 430 kts | 241° |
| 2026-05-06 16:30 | 44.93340 | -77.41777 | 41862 ft | 430 kts | 241° |
| 2026-05-06 16:30 | 44.89372 | -77.51486 | 41862 ft | 430 kts | 241° |
| 2026-05-06 16:31 | 44.86381 | -77.58778 | 41861 ft | 429 kts | 241° |
| 2026-05-06 16:31 | 44.83388 | -77.66055 | 41797 ft | 427 kts | 241° |
| 2026-05-06 16:32 | 44.81898 | -77.69662 | 41209 ft | 425 kts | 241° |
| 2026-05-06 16:32 | 44.80412 | -77.73264 | 40491 ft | 426 kts | 241° |
| 2026-05-06 16:32 | 44.79421 | -77.75670 | 40029 ft | 427 kts | 241° |
| 2026-05-06 16:32 | 44.77930 | -77.79293 | 39368 ft | 427 kts | 241° |
| 2026-05-06 16:33 | 44.76439 | -77.82914 | 38678 ft | 428 kts | 240° |
| 2026-05-06 16:33 | 44.74943 | -77.86539 | 37870 ft | 429 kts | 240° |
| 2026-05-06 16:33 | 44.73442 | -77.90176 | 37035 ft | 428 kts | 240° |
| 2026-05-06 16:34 | 44.71212 | -77.95573 | 35918 ft | 426 kts | 240° |
| 2026-05-06 16:34 | 44.69726 | -77.99163 | 35311 ft | 421 kts | 240° |
| 2026-05-06 16:34 | 44.68262 | -78.02693 | 34834 ft | 414 kts | 240° |
| 2026-05-06 16:34 | 44.66822 | -78.06164 | 34393 ft | 408 kts | 239° |
| 2026-05-06 16:35 | 44.65403 | -78.09582 | 33953 ft | 401 kts | 239° |
| 2026-05-06 16:35 | 44.64027 | -78.12896 | 33486 ft | 395 kts | 239° |
| 2026-05-06 16:35 | 44.62652 | -78.16203 | 33063 ft | 387 kts | 239° |
| 2026-05-06 16:35 | 44.61302 | -78.19443 | 32651 ft | 380 kts | 239° |
| 2026-05-06 16:36 | 44.59980 | -78.22615 | 32249 ft | 373 kts | 239° |
| 2026-05-06 16:36 | 44.58681 | -78.25729 | 31858 ft | 366 kts | 239° |
| 2026-05-06 16:36 | 44.57420 | -78.28750 | 31408 ft | 361 kts | 239° |
| 2026-05-06 16:36 | 44.56164 | -78.31760 | 30969 ft | 356 kts | 239° |
| 2026-05-06 16:37 | 44.54915 | -78.34737 | 30516 ft | 352 kts | 239° |
| 2026-05-06 16:37 | 44.53683 | -78.37671 | 30074 ft | 348 kts | 239° |
| 2026-05-06 16:37 | 44.52461 | -78.40573 | 29571 ft | 343 kts | 239° |
| 2026-05-06 16:37 | 44.51257 | -78.43436 | 29125 ft | 338 kts | 239° |
| 2026-05-06 16:38 | 44.50067 | -78.46263 | 28679 ft | 333 kts | 239° |
| 2026-05-06 16:38 | 44.48901 | -78.49032 | 28244 ft | 328 kts | 240° |
| 2026-05-06 16:38 | 44.47747 | -78.51768 | 27805 ft | 324 kts | 240° |
| 2026-05-06 16:38 | 44.46601 | -78.54486 | 27382 ft | 324 kts | 240° |
| 2026-05-06 16:39 | 44.45471 | -78.57164 | 26959 ft | 323 kts | 240° |
| 2026-05-06 16:39 | 44.44325 | -78.59875 | 26524 ft | 323 kts | 240° |
| 2026-05-06 16:39 | 44.43183 | -78.62571 | 26076 ft | 322 kts | 240° |
| 2026-05-06 16:39 | 44.42043 | -78.65261 | 25620 ft | 321 kts | 240° |
| 2026-05-06 16:40 | 44.40908 | -78.67939 | 25199 ft | 320 kts | 241° |
| 2026-05-06 16:40 | 44.39771 | -78.70613 | 24771 ft | 319 kts | 241° |
| 2026-05-06 16:40 | 44.38639 | -78.73279 | 24308 ft | 319 kts | 241° |
| 2026-05-06 16:40 | 44.37510 | -78.75936 | 23868 ft | 317 kts | 241° |
| 2026-05-06 16:41 | 44.36363 | -78.78635 | 23538 ft | 333 kts | 241° |
| 2026-05-06 16:41 | 44.35143 | -78.81503 | 23452 ft | 353 kts | 241° |
| 2026-05-06 16:41 | 44.33867 | -78.84493 | 23054 ft | 361 kts | 240° |
| 2026-05-06 16:41 | 44.32578 | -78.87510 | 22484 ft | 361 kts | 240° |
| 2026-05-06 16:42 | 44.31280 | -78.90547 | 21806 ft | 367 kts | 240° |
| 2026-05-06 16:42 | 44.29976 | -78.93594 | 21187 ft | 364 kts | 240° |
| 2026-05-06 16:42 | 44.28678 | -78.96626 | 20655 ft | 363 kts | 240° |
| 2026-05-06 16:42 | 44.27376 | -78.99665 | 20130 ft | 364 kts | 240° |
| 2026-05-06 16:43 | 44.26077 | -79.02688 | 19606 ft | 363 kts | 240° |
| 2026-05-06 16:43 | 44.24600 | -79.05494 | 19079 ft | 364 kts | 229° |
| 2026-05-06 16:43 | 44.22653 | -79.07761 | 18601 ft | 365 kts | 218° |
| 2026-05-06 16:43 | 44.20546 | -79.09716 | 18143 ft | 362 kts | 218° |
| 2026-05-06 16:44 | 44.18499 | -79.11708 | 17525 ft | 356 kts | 220° |
| 2026-05-06 16:44 | 44.16542 | -79.13781 | 16923 ft | 350 kts | 221° |
| 2026-05-06 16:44 | 44.14645 | -79.15861 | 16435 ft | 344 kts | 221° |
| 2026-05-06 16:44 | 44.12781 | -79.17905 | 16005 ft | 338 kts | 221° |
| 2026-05-06 16:45 | 44.10924 | -79.19882 | 15621 ft | 334 kts | 220° |
| 2026-05-06 16:45 | 44.09064 | -79.21795 | 15174 ft | 332 kts | 219° |
| 2026-05-06 16:45 | 44.07199 | -79.23667 | 14722 ft | 335 kts | 219° |
| 2026-05-06 16:45 | 44.05262 | -79.25576 | 14209 ft | 339 kts | 218° |
| 2026-05-06 16:46 | 44.03478 | -79.27645 | 13799 ft | 337 kts | 226° |
| 2026-05-06 16:46 | 44.01841 | -79.29984 | 13207 ft | 338 kts | 229° |
| 2026-05-06 16:46 | 44.00268 | -79.32396 | 12667 ft | 337 kts | 230° |
| 2026-05-06 16:46 | 43.98731 | -79.34843 | 12191 ft | 334 kts | 230° |
| 2026-05-06 16:47 | 43.97220 | -79.37291 | 11738 ft | 332 kts | 231° |
| 2026-05-06 16:47 | 43.95721 | -79.39719 | 11240 ft | 330 kts | 230° |
| 2026-05-06 16:47 | 43.94228 | -79.42112 | 10825 ft | 326 kts | 230° |
| 2026-05-06 16:47 | 43.92732 | -79.44467 | 10366 ft | 324 kts | 230° |
| 2026-05-06 16:48 | 43.91242 | -79.46766 | 10063 ft | 318 kts | 230° |
| 2026-05-06 16:48 | 43.89776 | -79.49018 | 9762 ft | 311 kts | 230° |
| 2026-05-06 16:48 | 43.88337 | -79.51228 | 9386 ft | 307 kts | 229° |
| 2026-05-06 16:48 | 43.86903 | -79.53403 | 8996 ft | 301 kts | 229° |
| 2026-05-06 16:49 | 43.85514 | -79.55500 | 8633 ft | 291 kts | 229° |
| 2026-05-06 16:49 | 43.84168 | -79.57545 | 8233 ft | 284 kts | 229° |
| 2026-05-06 16:49 | 43.82870 | -79.59532 | 7805 ft | 278 kts | 229° |
| 2026-05-06 16:49 | 43.81589 | -79.61503 | 7493 ft | 273 kts | 229° |
| 2026-05-06 16:50 | 43.80314 | -79.63451 | 7178 ft | 272 kts | 229° |
| 2026-05-06 16:50 | 43.79033 | -79.65370 | 6907 ft | 269 kts | 229° |
| 2026-05-06 16:50 | 43.77769 | -79.67263 | 6679 ft | 265 kts | 229° |
| 2026-05-06 16:50 | 43.76542 | -79.69137 | 6475 ft | 261 kts | 229° |
| 2026-05-06 16:51 | 43.75366 | -79.71003 | 6261 ft | 257 kts | 231° |
| 2026-05-06 16:51 | 43.74238 | -79.72909 | 6028 ft | 254 kts | 233° |
| 2026-05-06 16:51 | 43.73166 | -79.74800 | 5970 ft | 246 kts | 233° |
| 2026-05-06 16:51 | 43.72059 | -79.76562 | 5921 ft | 246 kts | 229° |
| 2026-05-06 16:52 | 43.70919 | -79.78270 | 5976 ft | 241 kts | 229° |
| 2026-05-06 16:52 | 43.69789 | -79.79970 | 5966 ft | 239 kts | 228° |
| 2026-05-06 16:52 | 43.68660 | -79.81669 | 5855 ft | 242 kts | 227° |
| 2026-05-06 16:52 | 43.67492 | -79.83348 | 5691 ft | 242 kts | 226° |
| 2026-05-06 16:53 | 43.66291 | -79.85004 | 5469 ft | 244 kts | 225° |
| 2026-05-06 16:53 | 43.65081 | -79.86639 | 5259 ft | 244 kts | 225° |
| 2026-05-06 16:53 | 43.63844 | -79.88284 | 4933 ft | 248 kts | 225° |
| 2026-05-06 16:53 | 43.62631 | -79.89921 | 4870 ft | 241 kts | 226° |
| 2026-05-06 16:54 | 43.61452 | -79.91537 | 4767 ft | 235 kts | 226° |
| 2026-05-06 16:54 | 43.60314 | -79.93110 | 4663 ft | 227 kts | 227° |
| 2026-05-06 16:54 | 43.59176 | -79.94575 | 4475 ft | 221 kts | 217° |
| 2026-05-06 16:54 | 43.57813 | -79.95471 | 4325 ft | 215 kts | 198° |
| 2026-05-06 16:55 | 43.56339 | -79.95670 | 4116 ft | 213 kts | 178° |
| 2026-05-06 16:55 | 43.54919 | -79.95217 | 4033 ft | 202 kts | 160° |
| 2026-05-06 16:55 | 43.53782 | -79.94307 | 4099 ft | 184 kts | 144° |
| 2026-05-06 16:55 | 43.52910 | -79.93082 | 4008 ft | 176 kts | 129° |
| 2026-05-06 16:56 | 43.52303 | -79.91579 | 3962 ft | 182 kts | 112° |
| 2026-05-06 16:56 | 43.52107 | -79.89844 | 3994 ft | 186 kts | 86° |
| 2026-05-06 16:56 | 43.52448 | -79.88119 | 3990 ft | 190 kts | 57° |
| 2026-05-06 16:56 | 43.53320 | -79.86767 | 4044 ft | 190 kts | 41° |
| 2026-05-06 16:57 | 43.54285 | -79.85510 | 4054 ft | 192 kts | 40° |
| 2026-05-06 16:57 | 43.55317 | -79.84331 | 4011 ft | 198 kts | 36° |
| 2026-05-06 16:57 | 43.56328 | -79.83033 | 3950 ft | 196 kts | 48° |
| 2026-05-06 16:57 | 43.57067 | -79.81498 | 3747 ft | 191 kts | 57° |
| 2026-05-06 16:58 | 43.57883 | -79.80026 | 3359 ft | 195 kts | 45° |
| 2026-05-06 16:58 | 43.58852 | -79.78721 | 3055 ft | 192 kts | 41° |
| 2026-05-06 16:58 | 43.59797 | -79.77453 | 2821 ft | 186 kts | 46° |
| 2026-05-06 16:58 | 43.60660 | -79.76179 | 2545 ft | 177 kts | 45° |
| 2026-05-06 16:59 | 43.61479 | -79.74995 | 2338 ft | 163 kts | 46° |
| 2026-05-06 16:59 | 43.62204 | -79.73870 | 2112 ft | 152 kts | 46° |
| 2026-05-06 16:59 | 43.62920 | -79.72860 | 1919 ft | 142 kts | 41° |
| 2026-05-06 16:59 | 43.63607 | -79.71946 | 1840 ft | 133 kts | 43° |
| 2026-05-06 17:00 | 43.64252 | -79.71011 | 1643 ft | 136 kts | 44° |
| 2026-05-06 17:00 | 43.64892 | -79.70070 | 1395 ft | 133 kts | 46° |
| 2026-05-06 17:00 | 43.65521 | -79.69151 | 1163 ft | 130 kts | 46° |
| 2026-05-06 17:00 | 43.66137 | -79.68264 | 965 ft | 129 kts | 44° |
| 2026-05-06 17:01 | 43.66760 | -79.67352 | 800 ft | 131 kts | 44° |
| 2026-05-06 17:01 | 43.67380 | -79.66456 | 636 ft | 130 kts | 41° |
| 2026-05-06 17:01 | 43.67971 | -79.65597 | 576 ft | 106 kts | 46° |
| 2026-05-06 17:01 | 43.68358 | -79.65041 | 578 ft | 56 kts | 46° |
| 2026-05-06 17:02 | 43.68592 | -79.64698 | 576 ft | 47 kts | 47° |
| 2026-05-06 17:02 | 43.68743 | -79.64365 | 576 ft | 27 kts | 73° |
| 2026-05-06 17:02 | 43.68774 | -79.64136 | 573 ft | 20 kts | 81° |
| 2026-05-06 17:02 | 43.68778 | -79.63984 | 582 ft | 15 kts | 122° |
| 2026-05-06 17:03 | 43.68694 | -79.63869 | 580 ft | 18 kts | 136° |
| 2026-05-06 17:03 | 43.68595 | -79.63742 | 580 ft | 21 kts | 137° |
| 2026-05-06 17:03 | 43.68479 | -79.63590 | 574 ft | 24 kts | 136° |
| 2026-05-06 17:03 | 43.68373 | -79.63453 | 577 ft | 13 kts | 141° |
| 2026-05-06 17:04 | 43.68295 | -79.63473 | 579 ft | 13 kts | 224° |
| 2026-05-06 17:04 | 43.68233 | -79.63578 | 580 ft | 15 kts | 236° |
| 2026-05-06 17:04 | 43.68163 | -79.63700 | 581 ft | 15 kts | 225° |
| 2026-05-06 17:04 | 43.68128 | -79.63752 | 580 ft | 6 kts | 226° |
| 2026-05-06 17:05 | 43.68094 | -79.63753 | 579 ft | 5 kts | 159° |
| 2026-05-06 17:05 | 43.68066 | -79.63730 | 576 ft | 3 kts | 146° |
| 2026-05-06 17:05 | 43.68057 | -79.63722 | 579 ft | 1 kts | 147° |
| 2026-05-06 17:05 | 43.68051 | -79.63716 | 579 ft | 0 kts | 147° |
| 2026-05-06 17:06 | 43.68051 | -79.63717 | 579 ft | 0 kts | 147° |